Venice Bridge — 3EAU3 — position and weather

sailwx.info

Track history (hours):
 
Tides and Currents Weather Stations Pressure Air Temp Water Temp Dewpoint Dewpoint Depression Visibility Wind Speed Wind Dir Waves Ship Positions

Venice Bridge

Last reported at 2017-Sep-16 11:18 UTC. Time now 2017-Sep-25 11:36 UTC.
Position N 27°31' W 115°40'.
Warning: this ship's position is 9 days out of date.

Type: Cargo ship. MMSI: 352798000.

Date/timePositionNaut miles runAvg speedWind from/ knotsBaromVisibWave heightAir tempDewpointWater temp
2017-Sep-16 11:18N 27°31' W 115°40'17119.5
2017-Sep-16 02:33N 30°10' W 116°54'119.6
2017-Sep-16 02:30N 30°10' W 116°54'12719.8
2017-Sep-15 20:07N 32°11' W 117°40'219.4
2017-Sep-15 20:00N 32°13' W 117°41'1019.2
2017-Sep-15 19:30N 32°22' W 117°44'1019.1
2017-Sep-15 19:00N 32°31' W 117°48'1019.2
2017-Sep-15 18:31N 32°40' W 117°51'918.9
2017-Sep-15 18:01N 32°49' W 117°54'816.5
2017-Sep-15 17:31N 32°57' W 117°58'713.3
2017-Sep-15 17:00N 33°03' W 118°00'611.3
2017-Sep-15 16:30N 33°09' W 118°02'611.2
2017-Sep-15 16:00N 33°14' W 118°04'511.0
2017-Sep-15 15:30N 33°19' W 118°06'611.1
2017-Sep-15 15:00N 33°25' W 118°09'611.2
2017-Sep-15 14:30N 33°30' W 118°11'611.4
2017-Sep-15 14:01N 33°35' W 118°13'611.3
2017-Sep-15 13:31N 33°41' W 118°15'4 7.4
2017-Sep-15 13:00N 33°44' W 118°17'1 2.0
2017-Sep-15 12:29N 33°45' W 118°16'0 0.0
2017-Sep-15 11:56N 33°45' W 118°16'0 0.1
2017-Sep-15 11:20N 33°45' W 118°16'0 0.1
2017-Sep-15 10:50N 33°45' W 118°16'0 0.0
2017-Sep-15 09:02N 33°45' W 118°16'0 0.1
2017-Sep-15 08:50N 33°45' W 118°16'0 0.0
2017-Sep-15 08:29N 33°45' W 118°16'0 0.1
2017-Sep-15 07:59N 33°45' W 118°16'0 0.0
2017-Sep-15 07:29N 33°45' W 118°16'0 0.0
2017-Sep-15 06:56N 33°45' W 118°16'0 0.0
2017-Sep-15 06:26N 33°45' W 118°16'0 0.0
2017-Sep-15 05:59N 33°45' W 118°16'0 0.0
2017-Sep-15 04:41N 33°45' W 118°16'0 0.0
2017-Sep-15 04:23N 33°45' W 118°16'0 0.1
2017-Sep-15 03:53N 33°45' W 118°16'0 0.1
2017-Sep-15 03:17N 33°45' W 118°16'0 0.0
2017-Sep-15 02:53N 33°45' W 118°16'0 0.0
2017-Sep-15 01:23N 33°45' W 118°16'0 0.1
2017-Sep-15 00:58N 33°45' W 118°16'0 0.0
2017-Sep-15 00:20N 33°45' W 118°16'0 0.0
2017-Sep-14 23:59N 33°45' W 118°16'0 0.1
2017-Sep-14 23:29N 33°45' W 118°16'0 0.0
2017-Sep-14 22:53N 33°45' W 118°16'0 0.1
2017-Sep-14 22:23N 33°45' W 118°16'0 0.0
2017-Sep-14 21:44N 33°45' W 118°16'0 0.0
2017-Sep-14 21:23N 33°45' W 118°16'0 0.0
2017-Sep-14 20:56N 33°45' W 118°16'0 0.0
2017-Sep-14 20:26N 33°45' W 118°16'0 0.0
2017-Sep-14 19:52N 33°45' W 118°16'0 0.0
2017-Sep-14 19:23N 33°45' W 118°16'0 0.1
2017-Sep-14 18:56N 33°45' W 118°16'0 0.1
2017-Sep-14 18:26N 33°45' W 118°16'0 0.0
2017-Sep-14 17:58N 33°45' W 118°16'0 0.1
2017-Sep-14 17:16N 33°45' W 118°16'0 0.1
2017-Sep-14 16:50N 33°45' W 118°16'0 0.0
2017-Sep-14 16:29N 33°45' W 118°16'0 0.0
2017-Sep-14 15:59N 33°45' W 118°16'0 0.0
2017-Sep-14 14:40N 33°45' W 118°16'0 0.0
2017-Sep-14 14:11N 33°45' W 118°16'0 0.0
2017-Sep-14 13:56N 33°45' W 118°16'0 0.0
2017-Sep-14 13:29N 33°45' W 118°16'0 0.1
2017-Sep-14 12:59N 33°45' W 118°16'0 0.1
2017-Sep-14 12:30N 33°45' W 118°16'2 4.2
2017-Sep-14 12:00N 33°43' W 118°16'4 8.7
2017-Sep-14 11:30N 33°39' W 118°13'4 7.1
2017-Sep-14 11:00N 33°36' W 118°15'4 8.9
2017-Sep-14 10:30N 33°36' W 118°20'5 8.9
2017-Sep-14 09:59N 33°36' W 118°26'4 8.3
2017-Sep-14 09:30N 33°36' W 118°30'6 8.5
2017-Sep-14 08:47N 33°36' W 118°38'2 8.5
2017-Sep-14 08:29N 33°36' W 118°41'5 9.8
2017-Sep-14 08:00N 33°37' W 118°47'510.5
2017-Sep-14 07:30N 33°37' W 118°53'610.4
2017-Sep-14 06:54N 33°37' W 119°00'410.2
2017-Sep-14 06:31N 33°37' W 119°05'611.1
2017-Sep-14 06:00N 33°36' W 119°12'611.1
2017-Sep-14 05:30N 33°35' W 119°18'710.9
2017-Sep-14 04:52N 33°34' W 119°27'410.4
2017-Sep-14 04:30N 33°33' W 119°31'510.6
2017-Sep-14 04:01N 33°32' W 119°37'1010.8
2017-Sep-14 03:04N 33°31' W 119°49'111.2
2017-Sep-14 02:59N 33°31' W 119°50'510.6
2017-Sep-14 02:31N 33°30' W 119°56'510.6
2017-Sep-14 02:00N 33°29' W 120°03'610.7
2017-Sep-14 01:29N 33°28' W 120°09'611.0
2017-Sep-14 00:56N 33°29' W 120°17'511.1
2017-Sep-14 00:29N 33°31' W 120°22'510.9
2017-Sep-14 00:00N 33°32' W 120°28'510.9
2017-Sep-13 23:30N 33°35' W 120°34'510.7
2017-Sep-13 23:00N 33°37' W 120°40'511.0
2017-Sep-13 22:30N 33°40' W 120°46'510.9
2017-Sep-13 22:01N 33°45' W 120°48'510.8
2017-Sep-13 21:30N 33°49' W 120°52'511.0
2017-Sep-13 21:01N 33°54' W 120°55'611.1
2017-Sep-13 20:30N 33°59' W 120°58'611.6
2017-Sep-13 20:01N 34°04' W 121°02'611.8
2017-Sep-13 19:31N 34°09' W 121°05'611.8
2017-Sep-13 19:01N 34°14' W 121°09'611.9
2017-Sep-13 18:30N 34°19' W 121°13'612.3
2017-Sep-13 18:00N 34°25' W 121°16'612.3
2017-Sep-13 17:30N 34°30' W 121°20'612.0
2017-Sep-13 17:00N 34°35' W 121°24'612.1
2017-Sep-13 16:30N 34°40' W 121°27'612.0
2017-Sep-13 16:00N 34°46' W 121°30'813.6
2017-Sep-13 15:27N 34°53' W 121°35'614.4
2017-Sep-13 15:00N 34°58' W 121°39'816.5
2017-Sep-13 14:30N 35°05' W 121°44'916.8
2017-Sep-13 13:58N 35°13' W 121°49'916.9
2017-Sep-13 13:27N 35°21' W 121°54'816.8
2017-Sep-13 13:00N 35°27' W 121°59'3017.2
2017-Sep-13 11:14N 35°54' W 122°17'417.2
2017-Sep-13 11:00N 35°57' W 122°20'5817.1
2017-Sep-13 07:36N 36°48' W 122°55'217.2
2017-Sep-13 07:30N 36°50' W 122°56'917.2
2017-Sep-13 07:00N 36°57' W 123°01'816.8
2017-Sep-13 06:30N 37°05' W 123°03'917.3
2017-Sep-13 06:00N 37°14' W 123°04'917.4
2017-Sep-13 05:30N 37°23' W 123°04'917.3
2017-Sep-13 05:00N 37°31' W 123°05'815.5
2017-Sep-13 04:30N 37°37' W 122°58'917.0
2017-Sep-13 04:00N 37°42' W 122°49'715.0
2017-Sep-13 03:30N 37°46' W 122°41'713.3
2017-Sep-13 03:00N 37°48' W 122°33'714.5
2017-Sep-13 02:31N 37°51' W 122°25'510.6
2017-Sep-13 02:00N 37°48' W 122°19'1 3.0
2017-Sep-13 01:31N 37°48' W 122°17'2 3.3
2017-Sep-13 01:00N 37°48' W 122°19'0 0.1
2017-Sep-13 00:28N 37°48' W 122°19'0 0.0
2017-Sep-12 23:58N 37°48' W 122°19'0 0.0
2017-Sep-12 23:28N 37°48' W 122°19'0 0.0
2017-Sep-12 22:58N 37°48' W 122°19'0 0.1
2017-Sep-12 22:28N 37°48' W 122°20'0 0.1
2017-Sep-12 21:58N 37°48' W 122°19'0 0.0
2017-Sep-12 21:28N 37°48' W 122°19'0 0.0
2017-Sep-12 20:58N 37°48' W 122°19'0 0.0
2017-Sep-12 20:28N 37°48' W 122°19'0 0.0
2017-Sep-12 19:58N 37°48' W 122°19'0 0.0
2017-Sep-12 19:28N 37°48' W 122°19'0 0.0
2017-Sep-12 18:58N 37°48' W 122°19'0 0.0
2017-Sep-12 18:28N 37°48' W 122°19'0 0.0
2017-Sep-12 17:58N 37°48' W 122°19'0 0.0
2017-Sep-12 17:28N 37°48' W 122°19'0 0.0
2017-Sep-12 16:58N 37°48' W 122°19'0 0.0
2017-Sep-12 16:28N 37°48' W 122°19'0 0.0
2017-Sep-12 15:58N 37°48' W 122°19'0 0.0
2017-Sep-12 15:28N 37°48' W 122°19'0 0.0
2017-Sep-12 14:58N 37°48' W 122°19'0 0.0
2017-Sep-12 14:28N 37°48' W 122°19'0 0.0
2017-Sep-12 13:58N 37°48' W 122°19'0 0.0
2017-Sep-12 13:28N 37°48' W 122°19'0 0.0
2017-Sep-12 12:58N 37°48' W 122°19'0 0.0
2017-Sep-12 12:28N 37°48' W 122°19'0 0.0
2017-Sep-12 11:58N 37°48' W 122°19'0 0.0
2017-Sep-12 11:28N 37°48' W 122°19'0 0.0
2017-Sep-12 10:58N 37°48' W 122°19'0 0.0
2017-Sep-12 10:28N 37°48' W 122°19'0 0.0
2017-Sep-12 09:58N 37°48' W 122°19'0 0.0
2017-Sep-12 09:28N 37°48' W 122°19'0 0.0
2017-Sep-12 08:58N 37°48' W 122°19'0 0.0
2017-Sep-12 08:28N 37°48' W 122°19'0 0.0
2017-Sep-12 07:58N 37°48' W 122°19'0 0.0
2017-Sep-12 07:28N 37°48' W 122°19'0 0.0
2017-Sep-12 06:58N 37°48' W 122°19'0 0.0
2017-Sep-12 06:28N 37°48' W 122°19'0 0.0
2017-Sep-12 05:58N 37°48' W 122°19'0 0.0
2017-Sep-12 05:28N 37°48' W 122°19'0 0.0
2017-Sep-12 04:58N 37°48' W 122°19'0 0.0
2017-Sep-12 04:28N 37°48' W 122°19'0 0.0
2017-Sep-12 03:58N 37°48' W 122°19'0 0.0
2017-Sep-12 03:28N 37°48' W 122°19'0 0.0
2017-Sep-12 02:58N 37°48' W 122°19'0 0.0
2017-Sep-12 02:28N 37°48' W 122°19'0 0.0
2017-Sep-12 01:58N 37°48' W 122°19'0 0.0
2017-Sep-12 01:28N 37°48' W 122°19'0 0.0
2017-Sep-12 00:58N 37°48' W 122°19'0 0.0
2017-Sep-12 00:28N 37°48' W 122°19'0 0.0
2017-Sep-11 23:58N 37°48' W 122°19'0 0.0
2017-Sep-11 23:28N 37°48' W 122°19'1 1.5
2017-Sep-11 23:00N 37°48' W 122°20'510.6
2017-Sep-11 22:30N 37°49' W 122°27'817.0
2017-Sep-11 22:00N 37°46' W 122°37'612.9
2017-Sep-11 21:31N 37°46' W 122°45'816.5
2017-Sep-11 21:00N 37°50' W 122°54'714.0
2017-Sep-11 20:30N 37°53' W 123°02'612.6
2017-Sep-11 20:00N 37°56' W 123°09'612.6
2017-Sep-11 19:30N 38°01' W 123°14'713.2
2017-Sep-11 19:00N 38°06' W 123°20'714.4
2017-Sep-11 18:30N 38°11' W 123°27'714.3
2017-Sep-11 18:00N 38°16' W 123°33'713.9
2017-Sep-11 17:30N 38°20' W 123°40'714.2
2017-Sep-11 17:01N 38°27' W 123°44'714.1
2017-Sep-11 16:30N 38°33' W 123°48'714.0
2017-Sep-11 16:00N 38°39' W 123°52'714.5
2017-Sep-11 15:30N 38°46' W 123°56'816.8
2017-Sep-11 15:00N 38°53' W 124°01'55419.4
2017-Sep-10 10:31N 48°04' W 125°26'319.3
2017-Sep-10 10:23N 48°06' W 125°24'918.6
2017-Sep-10 09:55N 48°14' W 125°17'818.7
2017-Sep-10 09:29N 48°21' W 125°12'919.1
2017-Sep-10 09:00N 48°29' W 125°05'917.7
2017-Sep-10 08:29N 48°31' W 124°51'1020.6
2017-Sep-10 08:01N 48°29' W 124°37'1121.1
2017-Sep-10 07:30N 48°24' W 124°22'1121.2
2017-Sep-10 07:00N 48°20' W 124°08'1121.2
2017-Sep-10 06:30N 48°17' W 123°53'1122.0
2017-Sep-10 06:00N 48°16' W 123°36'917.9
2017-Sep-10 05:31N 48°21' W 123°26'510.5
2017-Sep-10 05:00N 48°23' W 123°18'713.2
2017-Sep-10 04:31N 48°28' W 123°12'1019.1
2017-Sep-10 04:01N 48°38' W 123°15'815.1
2017-Sep-10 03:31N 48°44' W 123°09'714.8
2017-Sep-10 03:00N 48°51' W 123°03'1019.6
2017-Sep-10 02:30N 48°58' W 123°13'816.2
2017-Sep-10 02:00N 49°04' W 123°20'611.0
2017-Sep-10 01:30N 49°08' W 123°14'611.7
2017-Sep-10 01:00N 49°07' W 123°05'5 9.6
2017-Sep-10 00:30N 49°09' W 122°58'3 5.6
2017-Sep-10 00:00N 49°11' W 122°55'0 0.4
2017-Sep-09 23:30N 49°11' W 122°55'0 0.0
2017-Sep-09 23:00N 49°11' W 122°55'0 0.0
2017-Sep-09 22:30N 49°11' W 122°55'0 0.0
2017-Sep-09 22:00N 49°11' W 122°55'0 0.0
2017-Sep-09 21:30N 49°11' W 122°55'0 0.0
2017-Sep-09 21:00N 49°11' W 122°55'0 0.0
2017-Sep-09 20:30N 49°11' W 122°55'0 0.0
2017-Sep-09 20:00N 49°11' W 122°55'0 0.0
2017-Sep-09 19:30N 49°11' W 122°55'0 0.0
2017-Sep-09 19:00N 49°11' W 122°55'0 0.0
2017-Sep-09 18:30N 49°11' W 122°55'0 0.0
2017-Sep-09 18:00N 49°11' W 122°55'0 0.0
2017-Sep-09 17:30N 49°11' W 122°55'0 0.0
2017-Sep-09 17:00N 49°11' W 122°55'0 0.0
2017-Sep-09 16:30N 49°11' W 122°55'0 0.0
2017-Sep-09 16:00N 49°11' W 122°55'0 0.0
2017-Sep-09 15:30N 49°11' W 122°55'0 0.0
2017-Sep-09 15:00N 49°11' W 122°55'0 0.0
2017-Sep-09 14:30N 49°11' W 122°55'0 0.0
2017-Sep-09 13:57N 49°11' W 122°55'0 0.0
2017-Sep-09 13:30N 49°11' W 122°55'0 0.0
2017-Sep-09 13:00N 49°11' W 122°55'0 0.0
2017-Sep-09 12:27N 49°11' W 122°55'0 0.0
2017-Sep-09 12:00N 49°11' W 122°55'0 0.3
2017-Sep-09 11:30N 49°11' W 122°55'1 1.8
2017-Sep-09 11:00N 49°10' W 122°56'3 6.6
2017-Sep-09 10:30N 49°09' W 123°00'4 8.0
2017-Sep-09 10:00N 49°07' W 123°05'5 9.2
2017-Sep-09 09:30N 49°07' W 123°12'510.0
2017-Sep-09 09:00N 49°06' W 123°19'4 7.3
2017-Sep-09 08:30N 49°02' W 123°18'816.0
2017-Sep-09 08:00N 48°57' W 123°09'918.5
2017-Sep-09 07:30N 48°49' W 123°01'714.8
2017-Sep-09 07:00N 48°44' W 123°08'713.6
2017-Sep-09 06:30N 48°38' W 123°14'917.3
2017-Sep-09 06:00N 48°30' W 123°11'714.3
2017-Sep-09 05:30N 48°23' W 123°15'611.2
2017-Sep-09 05:00N 48°21' W 123°23'714.2
2017-Sep-09 04:30N 48°15' W 123°26'612.5
2017-Sep-09 04:00N 48°09' W 123°23'815.9
2017-Sep-09 03:30N 48°11' W 123°11'918.4
2017-Sep-09 03:00N 48°12' W 122°57'918.3
2017-Sep-09 02:29N 48°09' W 122°44'917.6
2017-Sep-09 02:00N 48°02' W 122°37'917.4
2017-Sep-09 01:30N 47°55' W 122°29'918.9
2017-Sep-09 01:00N 47°46' W 122°26'918.7
2017-Sep-09 00:30N 47°37' W 122°27'918.1
2017-Sep-09 00:00N 47°28' W 122°24'713.8
2017-Sep-08 23:30N 47°21' W 122°24'5 9.3
2017-Sep-08 23:00N 47°16' W 122°25'0 0.3
2017-Sep-08 22:03N 47°16' W 122°25'0 0.0
2017-Sep-08 22:00N 47°16' W 122°25'0 0.0
2017-Sep-08 21:27N 47°16' W 122°25'0 0.0
2017-Sep-08 21:00N 47°16' W 122°25'0 0.0
2017-Sep-08 20:30N 47°16' W 122°25'0 0.0
2017-Sep-08 20:00N 47°16' W 122°25'0 0.0
2017-Sep-08 19:30N 47°16' W 122°25'0 0.0
2017-Sep-08 18:57N 47°16' W 122°25'0 0.0
2017-Sep-08 18:30N 47°16' W 122°25'0 0.0
2017-Sep-08 18:00N 47°16' W 122°25'0 0.0
2017-Sep-08 17:24N 47°16' W 122°25'0 0.0
2017-Sep-08 16:48N 47°16' W 122°25'0 0.0
2017-Sep-08 16:12N 47°16' W 122°25'0 0.0
2017-Sep-08 15:54N 47°16' W 122°25'0 0.0
2017-Sep-08 15:21N 47°16' W 122°25'0 0.0
2017-Sep-08 14:57N 47°16' W 122°25'0 0.0
2017-Sep-08 14:27N 47°16' W 122°25'0 0.0
2017-Sep-08 13:57N 47°16' W 122°25'0 0.0
2017-Sep-08 13:27N 47°16' W 122°25'0 0.3
2017-Sep-08 13:00N 47°16' W 122°25'1 2.1
2017-Sep-08 12:30N 47°17' W 122°26'4 8.4
2017-Sep-08 12:00N 47°21' W 122°25'713.4
2017-Sep-08 11:30N 47°28' W 122°25'816.3
2017-Sep-08 11:00N 47°36' W 122°28'917.5
2017-Sep-08 10:30N 47°45' W 122°27'816.9
2017-Sep-08 10:00N 47°53' W 122°29'917.3
2017-Sep-08 09:30N 47°60' W 122°37'917.4
2017-Sep-08 09:00N 48°08' W 122°42'917.7
2017-Sep-08 08:30N 48°11' W 122°54'917.1
2017-Sep-08 08:00N 48°12' W 123°07'713.7
2017-Sep-08 07:30N 48°11' W 123°17'5 9.6
2017-Sep-08 07:00N 48°10' W 123°25'714.6
2017-Sep-08 06:30N 48°13' W 123°34'816.1
2017-Sep-08 05:59N 48°14' W 123°47'816.6
2017-Sep-08 05:30N 48°15' W 123°59'816.6
2017-Sep-08 05:00N 48°18' W 124°10'816.8
2017-Sep-08 04:30N 48°22' W 124°22'917.1
2017-Sep-08 04:00N 48°25' W 124°33'816.3
2017-Sep-08 03:30N 48°29' W 124°44'916.8
2017-Sep-08 03:00N 48°28' W 124°57'816.5
2017-Sep-08 02:30N 48°22' W 125°05'817.0
2017-Sep-08 02:00N 48°14' W 125°11'816.7
2017-Sep-08 01:30N 48°07' W 125°17'816.9
2017-Sep-08 01:00N 47°60' W 125°23'917.1
2017-Sep-08 00:29N 47°51' W 125°22'917.2
2017-Sep-07 23:58N 47°42' W 125°20'1916.9
2017-Sep-07 22:50N 47°23' W 125°18'2416.9
2017-Sep-07 21:24N 46°59' W 125°16'9115.7
2017-Sep-07 15:37N 45°28' W 125°10'917.2
2017-Sep-07 15:07N 45°19' W 125°10'39217.6
2017-Sep-06 16:49N 38°51' W 123°53'619.9
2017-Sep-06 16:30N 38°46' W 123°49'1019.8
2017-Sep-06 16:00N 38°37' W 123°43'1019.2
2017-Sep-06 15:30N 38°29' W 123°36'1019.2
2017-Sep-06 15:00N 38°21' W 123°29'1019.8
2017-Sep-06 14:30N 38°13' W 123°23'1019.8
2017-Sep-06 14:00N 38°05' W 123°15'1020.0
2017-Sep-06 13:30N 37°58' W 123°06'1020.0
2017-Sep-06 13:00N 37°53' W 122°55'1019.1
2017-Sep-06 12:30N 37°48' W 122°45'611.9
2017-Sep-06 12:01N 37°46' W 122°38'816.9
2017-Sep-06 11:31N 37°50' W 122°28'  
Track history (hours):
 
Tides and Currents Weather Stations Pressure Air Temp Water Temp Dewpoint Dewpoint Depression Visibility Wind Speed Wind Dir Waves Ship Positions

Venice Bridge

Last reported at 2017-Sep-16 11:18 UTC. Time now 2017-Sep-25 11:36 UTC.
Position N 27°31' W 115°40'.
Warning: this ship's position is 9 days out of date.

Type: Cargo ship. MMSI: 352798000.

Date/timePositionNaut miles runAvg speedWind from/ knotsBaromVisibWave heightAir tempDewpointWater temp
2017-Sep-16 11:18N 27°31' W 115°40'17119.5
2017-Sep-16 02:33N 30°10' W 116°54'119.6
2017-Sep-16 02:30N 30°10' W 116°54'12719.8
2017-Sep-15 20:07N 32°11' W 117°40'219.4
2017-Sep-15 20:00N 32°13' W 117°41'1019.2
2017-Sep-15 19:30N 32°22' W 117°44'1019.1
2017-Sep-15 19:00N 32°31' W 117°48'1019.2
2017-Sep-15 18:31N 32°40' W 117°51'918.9
2017-Sep-15 18:01N 32°49' W 117°54'816.5
2017-Sep-15 17:31N 32°57' W 117°58'713.3
2017-Sep-15 17:00N 33°03' W 118°00'611.3
2017-Sep-15 16:30N 33°09' W 118°02'611.2
2017-Sep-15 16:00N 33°14' W 118°04'511.0
2017-Sep-15 15:30N 33°19' W 118°06'611.1
2017-Sep-15 15:00N 33°25' W 118°09'611.2
2017-Sep-15 14:30N 33°30' W 118°11'611.4
2017-Sep-15 14:01N 33°35' W 118°13'611.3
2017-Sep-15 13:31N 33°41' W 118°15'4 7.4
2017-Sep-15 13:00N 33°44' W 118°17'1 2.0
2017-Sep-15 12:29N 33°45' W 118°16'0 0.0
2017-Sep-15 11:56N 33°45' W 118°16'0 0.1
2017-Sep-15 11:20N 33°45' W 118°16'0 0.1
2017-Sep-15 10:50N 33°45' W 118°16'0 0.0
2017-Sep-15 09:02N 33°45' W 118°16'0 0.1
2017-Sep-15 08:50N 33°45' W 118°16'0 0.0
2017-Sep-15 08:29N 33°45' W 118°16'0 0.1
2017-Sep-15 07:59N 33°45' W 118°16'0 0.0
2017-Sep-15 07:29N 33°45' W 118°16'0 0.0
2017-Sep-15 06:56N 33°45' W 118°16'0 0.0
2017-Sep-15 06:26N 33°45' W 118°16'0 0.0
2017-Sep-15 05:59N 33°45' W 118°16'0 0.0
2017-Sep-15 04:41N 33°45' W 118°16'0 0.0
2017-Sep-15 04:23N 33°45' W 118°16'0 0.1
2017-Sep-15 03:53N 33°45' W 118°16'0 0.1
2017-Sep-15 03:17N 33°45' W 118°16'0 0.0
2017-Sep-15 02:53N 33°45' W 118°16'0 0.0
2017-Sep-15 01:23N 33°45' W 118°16'0 0.1
2017-Sep-15 00:58N 33°45' W 118°16'0 0.0
2017-Sep-15 00:20N 33°45' W 118°16'0 0.0
2017-Sep-14 23:59N 33°45' W 118°16'0 0.1
2017-Sep-14 23:29N 33°45' W 118°16'0 0.0
2017-Sep-14 22:53N 33°45' W 118°16'0 0.1
2017-Sep-14 22:23N 33°45' W 118°16'0 0.0
2017-Sep-14 21:44N 33°45' W 118°16'0 0.0
2017-Sep-14 21:23N 33°45' W 118°16'0 0.0
2017-Sep-14 20:56N 33°45' W 118°16'0 0.0
2017-Sep-14 20:26N 33°45' W 118°16'0 0.0
2017-Sep-14 19:52N 33°45' W 118°16'0 0.0
2017-Sep-14 19:23N 33°45' W 118°16'0 0.1
2017-Sep-14 18:56N 33°45' W 118°16'0 0.1
2017-Sep-14 18:26N 33°45' W 118°16'0 0.0
2017-Sep-14 17:58N 33°45' W 118°16'0 0.1
2017-Sep-14 17:16N 33°45' W 118°16'0 0.1
2017-Sep-14 16:50N 33°45' W 118°16'0 0.0
2017-Sep-14 16:29N 33°45' W 118°16'0 0.0
2017-Sep-14 15:59N 33°45' W 118°16'0 0.0
2017-Sep-14 14:40N 33°45' W 118°16'0 0.0
2017-Sep-14 14:11N 33°45' W 118°16'0 0.0
2017-Sep-14 13:56N 33°45' W 118°16'0 0.0
2017-Sep-14 13:29N 33°45' W 118°16'0 0.1
2017-Sep-14 12:59N 33°45' W 118°16'0 0.1
2017-Sep-14 12:30N 33°45' W 118°16'2 4.2
2017-Sep-14 12:00N 33°43' W 118°16'4 8.7
2017-Sep-14 11:30N 33°39' W 118°13'4 7.1
2017-Sep-14 11:00N 33°36' W 118°15'4 8.9
2017-Sep-14 10:30N 33°36' W 118°20'5 8.9
2017-Sep-14 09:59N 33°36' W 118°26'4 8.3
2017-Sep-14 09:30N 33°36' W 118°30'6 8.5
2017-Sep-14 08:47N 33°36' W 118°38'2 8.5
2017-Sep-14 08:29N 33°36' W 118°41'5 9.8
2017-Sep-14 08:00N 33°37' W 118°47'510.5
2017-Sep-14 07:30N 33°37' W 118°53'610.4
2017-Sep-14 06:54N 33°37' W 119°00'410.2
2017-Sep-14 06:31N 33°37' W 119°05'611.1
2017-Sep-14 06:00N 33°36' W 119°12'611.1
2017-Sep-14 05:30N 33°35' W 119°18'710.9
2017-Sep-14 04:52N 33°34' W 119°27'410.4
2017-Sep-14 04:30N 33°33' W 119°31'510.6
2017-Sep-14 04:01N 33°32' W 119°37'1010.8
2017-Sep-14 03:04N 33°31' W 119°49'111.2
2017-Sep-14 02:59N 33°31' W 119°50'510.6
2017-Sep-14 02:31N 33°30' W 119°56'510.6
2017-Sep-14 02:00N 33°29' W 120°03'610.7
2017-Sep-14 01:29N 33°28' W 120°09'611.0
2017-Sep-14 00:56N 33°29' W 120°17'511.1
2017-Sep-14 00:29N 33°31' W 120°22'510.9
2017-Sep-14 00:00N 33°32' W 120°28'510.9
2017-Sep-13 23:30N 33°35' W 120°34'510.7
2017-Sep-13 23:00N 33°37' W 120°40'511.0
2017-Sep-13 22:30N 33°40' W 120°46'510.9
2017-Sep-13 22:01N 33°45' W 120°48'510.8
2017-Sep-13 21:30N 33°49' W 120°52'511.0
2017-Sep-13 21:01N 33°54' W 120°55'611.1
2017-Sep-13 20:30N 33°59' W 120°58'611.6
2017-Sep-13 20:01N 34°04' W 121°02'611.8
2017-Sep-13 19:31N 34°09' W 121°05'611.8
2017-Sep-13 19:01N 34°14' W 121°09'611.9
2017-Sep-13 18:30N 34°19' W 121°13'612.3
2017-Sep-13 18:00N 34°25' W 121°16'612.3
2017-Sep-13 17:30N 34°30' W 121°20'612.0
2017-Sep-13 17:00N 34°35' W 121°24'612.1
2017-Sep-13 16:30N 34°40' W 121°27'612.0
2017-Sep-13 16:00N 34°46' W 121°30'813.6
2017-Sep-13 15:27N 34°53' W 121°35'614.4
2017-Sep-13 15:00N 34°58' W 121°39'816.5
2017-Sep-13 14:30N 35°05' W 121°44'916.8
2017-Sep-13 13:58N 35°13' W 121°49'916.9
2017-Sep-13 13:27N 35°21' W 121°54'816.8
2017-Sep-13 13:00N 35°27' W 121°59'3017.2
2017-Sep-13 11:14N 35°54' W 122°17'417.2
2017-Sep-13 11:00N 35°57' W 122°20'5817.1
2017-Sep-13 07:36N 36°48' W 122°55'217.2
2017-Sep-13 07:30N 36°50' W 122°56'917.2
2017-Sep-13 07:00N 36°57' W 123°01'816.8
2017-Sep-13 06:30N 37°05' W 123°03'917.3
2017-Sep-13 06:00N 37°14' W 123°04'917.4
2017-Sep-13 05:30N 37°23' W 123°04'917.3
2017-Sep-13 05:00N 37°31' W 123°05'815.5
2017-Sep-13 04:30N 37°37' W 122°58'917.0
2017-Sep-13 04:00N 37°42' W 122°49'715.0
2017-Sep-13 03:30N 37°46' W 122°41'713.3
2017-Sep-13 03:00N 37°48' W 122°33'714.5
2017-Sep-13 02:31N 37°51' W 122°25'510.6
2017-Sep-13 02:00N 37°48' W 122°19'1 3.0
2017-Sep-13 01:31N 37°48' W 122°17'2 3.3
2017-Sep-13 01:00N 37°48' W 122°19'0 0.1
2017-Sep-13 00:28N 37°48' W 122°19'0 0.0
2017-Sep-12 23:58N 37°48' W 122°19'0 0.0
2017-Sep-12 23:28N 37°48' W 122°19'0 0.0
2017-Sep-12 22:58N 37°48' W 122°19'0 0.1
2017-Sep-12 22:28N 37°48' W 122°20'0 0.1
2017-Sep-12 21:58N 37°48' W 122°19'0 0.0
2017-Sep-12 21:28N 37°48' W 122°19'0 0.0
2017-Sep-12 20:58N 37°48' W 122°19'0 0.0
2017-Sep-12 20:28N 37°48' W 122°19'0 0.0
2017-Sep-12 19:58N 37°48' W 122°19'0 0.0
2017-Sep-12 19:28N 37°48' W 122°19'0 0.0
2017-Sep-12 18:58N 37°48' W 122°19'0 0.0
2017-Sep-12 18:28N 37°48' W 122°19'0 0.0
2017-Sep-12 17:58N 37°48' W 122°19'0 0.0
2017-Sep-12 17:28N 37°48' W 122°19'0 0.0
2017-Sep-12 16:58N 37°48' W 122°19'0 0.0
2017-Sep-12 16:28N 37°48' W 122°19'0 0.0
2017-Sep-12 15:58N 37°48' W 122°19'0 0.0
2017-Sep-12 15:28N 37°48' W 122°19'0 0.0
2017-Sep-12 14:58N 37°48' W 122°19'0 0.0
2017-Sep-12 14:28N 37°48' W 122°19'0 0.0
2017-Sep-12 13:58N 37°48' W 122°19'0 0.0
2017-Sep-12 13:28N 37°48' W 122°19'0 0.0
2017-Sep-12 12:58N 37°48' W 122°19'0 0.0
2017-Sep-12 12:28N 37°48' W 122°19'0 0.0
2017-Sep-12 11:58N 37°48' W 122°19'0 0.0
2017-Sep-12 11:28N 37°48' W 122°19'0 0.0
2017-Sep-12 10:58N 37°48' W 122°19'0 0.0
2017-Sep-12 10:28N 37°48' W 122°19'0 0.0
2017-Sep-12 09:58N 37°48' W 122°19'0 0.0
2017-Sep-12 09:28N 37°48' W 122°19'0 0.0
2017-Sep-12 08:58N 37°48' W 122°19'0 0.0
2017-Sep-12 08:28N 37°48' W 122°19'0 0.0
2017-Sep-12 07:58N 37°48' W 122°19'0 0.0
2017-Sep-12 07:28N 37°48' W 122°19'0 0.0
2017-Sep-12 06:58N 37°48' W 122°19'0 0.0
2017-Sep-12 06:28N 37°48' W 122°19'0 0.0
2017-Sep-12 05:58N 37°48' W 122°19'0 0.0
2017-Sep-12 05:28N 37°48' W 122°19'0 0.0
2017-Sep-12 04:58N 37°48' W 122°19'0 0.0
2017-Sep-12 04:28N 37°48' W 122°19'0 0.0
2017-Sep-12 03:58N 37°48' W 122°19'0 0.0
2017-Sep-12 03:28N 37°48' W 122°19'0 0.0
2017-Sep-12 02:58N 37°48' W 122°19'0 0.0
2017-Sep-12 02:28N 37°48' W 122°19'0 0.0
2017-Sep-12 01:58N 37°48' W 122°19'0 0.0
2017-Sep-12 01:28N 37°48' W 122°19'0 0.0
2017-Sep-12 00:58N 37°48' W 122°19'0 0.0
2017-Sep-12 00:28N 37°48' W 122°19'0 0.0
2017-Sep-11 23:58N 37°48' W 122°19'0 0.0
2017-Sep-11 23:28N 37°48' W 122°19'1 1.5
2017-Sep-11 23:00N 37°48' W 122°20'510.6
2017-Sep-11 22:30N 37°49' W 122°27'817.0
2017-Sep-11 22:00N 37°46' W 122°37'612.9
2017-Sep-11 21:31N 37°46' W 122°45'816.5
2017-Sep-11 21:00N 37°50' W 122°54'714.0
2017-Sep-11 20:30N 37°53' W 123°02'612.6
2017-Sep-11 20:00N 37°56' W 123°09'612.6
2017-Sep-11 19:30N 38°01' W 123°14'713.2
2017-Sep-11 19:00N 38°06' W 123°20'714.4
2017-Sep-11 18:30N 38°11' W 123°27'714.3
2017-Sep-11 18:00N 38°16' W 123°33'713.9
2017-Sep-11 17:30N 38°20' W 123°40'714.2
2017-Sep-11 17:01N 38°27' W 123°44'714.1
2017-Sep-11 16:30N 38°33' W 123°48'714.0
2017-Sep-11 16:00N 38°39' W 123°52'714.5
2017-Sep-11 15:30N 38°46' W 123°56'816.8
2017-Sep-11 15:00N 38°53' W 124°01'55419.4
2017-Sep-10 10:31N 48°04' W 125°26'319.3
2017-Sep-10 10:23N 48°06' W 125°24'918.6
2017-Sep-10 09:55N 48°14' W 125°17'818.7
2017-Sep-10 09:29N 48°21' W 125°12'919.1
2017-Sep-10 09:00N 48°29' W 125°05'917.7
2017-Sep-10 08:29N 48°31' W 124°51'1020.6
2017-Sep-10 08:01N 48°29' W 124°37'1121.1
2017-Sep-10 07:30N 48°24' W 124°22'1121.2
2017-Sep-10 07:00N 48°20' W 124°08'1121.2
2017-Sep-10 06:30N 48°17' W 123°53'1122.0
2017-Sep-10 06:00N 48°16' W 123°36'917.9
2017-Sep-10 05:31N 48°21' W 123°26'510.5
2017-Sep-10 05:00N 48°23' W 123°18'713.2
2017-Sep-10 04:31N 48°28' W 123°12'1019.1
2017-Sep-10 04:01N 48°38' W 123°15'815.1
2017-Sep-10 03:31N 48°44' W 123°09'714.8
2017-Sep-10 03:00N 48°51' W 123°03'1019.6
2017-Sep-10 02:30N 48°58' W 123°13'816.2
2017-Sep-10 02:00N 49°04' W 123°20'611.0
2017-Sep-10 01:30N 49°08' W 123°14'611.7
2017-Sep-10 01:00N 49°07' W 123°05'5 9.6
2017-Sep-10 00:30N 49°09' W 122°58'3 5.6
2017-Sep-10 00:00N 49°11' W 122°55'0 0.4
2017-Sep-09 23:30N 49°11' W 122°55'0 0.0
2017-Sep-09 23:00N 49°11' W 122°55'0 0.0
2017-Sep-09 22:30N 49°11' W 122°55'0 0.0
2017-Sep-09 22:00N 49°11' W 122°55'0 0.0
2017-Sep-09 21:30N 49°11' W 122°55'0 0.0
2017-Sep-09 21:00N 49°11' W 122°55'0 0.0
2017-Sep-09 20:30N 49°11' W 122°55'0 0.0
2017-Sep-09 20:00N 49°11' W 122°55'0 0.0
2017-Sep-09 19:30N 49°11' W 122°55'0 0.0
2017-Sep-09 19:00N 49°11' W 122°55'0 0.0
2017-Sep-09 18:30N 49°11' W 122°55'0 0.0
2017-Sep-09 18:00N 49°11' W 122°55'0 0.0
2017-Sep-09 17:30N 49°11' W 122°55'0 0.0
2017-Sep-09 17:00N 49°11' W 122°55'0 0.0
2017-Sep-09 16:30N 49°11' W 122°55'0 0.0
2017-Sep-09 16:00N 49°11' W 122°55'0 0.0
2017-Sep-09 15:30N 49°11' W 122°55'0 0.0
2017-Sep-09 15:00N 49°11' W 122°55'0 0.0
2017-Sep-09 14:30N 49°11' W 122°55'0 0.0
2017-Sep-09 13:57N 49°11' W 122°55'0 0.0
2017-Sep-09 13:30N 49°11' W 122°55'0 0.0
2017-Sep-09 13:00N 49°11' W 122°55'0 0.0
2017-Sep-09 12:27N 49°11' W 122°55'0 0.0
2017-Sep-09 12:00N 49°11' W 122°55'0 0.3
2017-Sep-09 11:30N 49°11' W 122°55'1 1.8
2017-Sep-09 11:00N 49°10' W 122°56'3 6.6
2017-Sep-09 10:30N 49°09' W 123°00'4 8.0
2017-Sep-09 10:00N 49°07' W 123°05'5 9.2
2017-Sep-09 09:30N 49°07' W 123°12'510.0
2017-Sep-09 09:00N 49°06' W 123°19'4 7.3
2017-Sep-09 08:30N 49°02' W 123°18'816.0
2017-Sep-09 08:00N 48°57' W 123°09'918.5
2017-Sep-09 07:30N 48°49' W 123°01'714.8
2017-Sep-09 07:00N 48°44' W 123°08'713.6
2017-Sep-09 06:30N 48°38' W 123°14'917.3
2017-Sep-09 06:00N 48°30' W 123°11'714.3
2017-Sep-09 05:30N 48°23' W 123°15'611.2
2017-Sep-09 05:00N 48°21' W 123°23'714.2
2017-Sep-09 04:30N 48°15' W 123°26'612.5
2017-Sep-09 04:00N 48°09' W 123°23'815.9
2017-Sep-09 03:30N 48°11' W 123°11'918.4
2017-Sep-09 03:00N 48°12' W 122°57'918.3
2017-Sep-09 02:29N 48°09' W 122°44'917.6
2017-Sep-09 02:00N 48°02' W 122°37'917.4
2017-Sep-09 01:30N 47°55' W 122°29'918.9
2017-Sep-09 01:00N 47°46' W 122°26'918.7
2017-Sep-09 00:30N 47°37' W 122°27'918.1
2017-Sep-09 00:00N 47°28' W 122°24'713.8
2017-Sep-08 23:30N 47°21' W 122°24'5 9.3
2017-Sep-08 23:00N 47°16' W 122°25'0 0.3
2017-Sep-08 22:03N 47°16' W 122°25'0 0.0
2017-Sep-08 22:00N 47°16' W 122°25'0 0.0
2017-Sep-08 21:27N 47°16' W 122°25'0 0.0
2017-Sep-08 21:00N 47°16' W 122°25'0 0.0
2017-Sep-08 20:30N 47°16' W 122°25'0 0.0
2017-Sep-08 20:00N 47°16' W 122°25'0 0.0
2017-Sep-08 19:30N 47°16' W 122°25'0 0.0
2017-Sep-08 18:57N 47°16' W 122°25'0 0.0
2017-Sep-08 18:30N 47°16' W 122°25'0 0.0
2017-Sep-08 18:00N 47°16' W 122°25'0 0.0
2017-Sep-08 17:24N 47°16' W 122°25'0 0.0
2017-Sep-08 16:48N 47°16' W 122°25'0 0.0
2017-Sep-08 16:12N 47°16' W 122°25'0 0.0
2017-Sep-08 15:54N 47°16' W 122°25'0 0.0
2017-Sep-08 15:21N 47°16' W 122°25'0 0.0
2017-Sep-08 14:57N 47°16' W 122°25'0 0.0
2017-Sep-08 14:27N 47°16' W 122°25'0 0.0
2017-Sep-08 13:57N 47°16' W 122°25'0 0.0
2017-Sep-08 13:27N 47°16' W 122°25'0 0.3
2017-Sep-08 13:00N 47°16' W 122°25'1 2.1
2017-Sep-08 12:30N 47°17' W 122°26'4 8.4
2017-Sep-08 12:00N 47°21' W 122°25'713.4
2017-Sep-08 11:30N 47°28' W 122°25'816.3
2017-Sep-08 11:00N 47°36' W 122°28'917.5
2017-Sep-08 10:30N 47°45' W 122°27'816.9
2017-Sep-08 10:00N 47°53' W 122°29'917.3
2017-Sep-08 09:30N 47°60' W 122°37'917.4
2017-Sep-08 09:00N 48°08' W 122°42'917.7
2017-Sep-08 08:30N 48°11' W 122°54'917.1
2017-Sep-08 08:00N 48°12' W 123°07'713.7
2017-Sep-08 07:30N 48°11' W 123°17'5 9.6
2017-Sep-08 07:00N 48°10' W 123°25'714.6
2017-Sep-08 06:30N 48°13' W 123°34'816.1
2017-Sep-08 05:59N 48°14' W 123°47'816.6
2017-Sep-08 05:30N 48°15' W 123°59'816.6
2017-Sep-08 05:00N 48°18' W 124°10'816.8
2017-Sep-08 04:30N 48°22' W 124°22'917.1
2017-Sep-08 04:00N 48°25' W 124°33'816.3
2017-Sep-08 03:30N 48°29' W 124°44'916.8
2017-Sep-08 03:00N 48°28' W 124°57'816.5
2017-Sep-08 02:30N 48°22' W 125°05'817.0
2017-Sep-08 02:00N 48°14' W 125°11'816.7
2017-Sep-08 01:30N 48°07' W 125°17'816.9
2017-Sep-08 01:00N 47°60' W 125°23'917.1
2017-Sep-08 00:29N 47°51' W 125°22'917.2
2017-Sep-07 23:58N 47°42' W 125°20'1916.9
2017-Sep-07 22:50N 47°23' W 125°18'2416.9
2017-Sep-07 21:24N 46°59' W 125°16'9115.7
2017-Sep-07 15:37N 45°28' W 125°10'917.2
2017-Sep-07 15:07N 45°19' W 125°10'39217.6
2017-Sep-06 16:49N 38°51' W 123°53'619.9
2017-Sep-06 16:30N 38°46' W 123°49'1019.8
2017-Sep-06 16:00N 38°37' W 123°43'1019.2
2017-Sep-06 15:30N 38°29' W 123°36'1019.2
2017-Sep-06 15:00N 38°21' W 123°29'1019.8
2017-Sep-06 14:30N 38°13' W 123°23'1019.8
2017-Sep-06 14:00N 38°05' W 123°15'1020.0
2017-Sep-06 13:30N 37°58' W 123°06'1020.0
2017-Sep-06 13:00N 37°53' W 122°55'1019.1
2017-Sep-06 12:30N 37°48' W 122°45'611.9
2017-Sep-06 12:01N 37°46' W 122°38'816.9
2017-Sep-06 11:31N 37°50' W 122°28'  

Dump ship's entire track history